Nearby METAR Reports

 

KAVP - Avoca/Wilkes B., Pennsylvania, USA
Distance from station: SW 13mi, 22km
Updated: Tue, 17-Jul-2018 23:56 EDT
Mist, Mostly cloudy
Mist, Mostly cloudy
 Wind from calm
Wind: Calm
Temperature: 66°F , 19°C
Dew Point: 66°F , 19°C
Humidity: 100%
Barometer: 29.90 inHg , 1012.5 hPa
Summary: Mist
Clouds: Mostly cloudy
Visibility: 3 miles , 5 km
Cloud details: Partly cloudy 200 ft
Mostly cloudy 6000 ft
2018/07/18 03:56 KAVP 180356Z 00000KT 3SM R04/4000VP6000FT BR SCT002 BKN060 19/19 A2990 RMK AO2 T01940194
KMPO - Mt. Pocono, Pennsylvania, USA
Distance from station: SSE 26mi, 43km
Updated: Tue, 17-Jul-2018 23:53 EDT
Few Clouds
Few Clouds
 Wind from WNW
Wind: WNW 5 mph , 7 km/h
Temperature: 63°F , 17°C
Dew Point: 63°F , 17°C
Humidity: 100%
Barometer: 29.92 inHg , 1013.2 hPa
Clouds: Few Clouds
Visibility: 10 miles , 16 km
Cloud details: Few Clouds 300 ft
2018/07/18 03:53 KMPO 180353Z AUTO 29004KT 10SM FEW003 17/17 A2992 RMK AO2 SLP120 T01670167 $
 
KMSV - Monticello, New York, USA
Distance from station: ENE 43mi, 69km
Updated: Tue, 17-Jul-2018 23:56 EDT

 Wind from W
Wind: W 6 mph , 9 km/h
Barometer: 29.91 inHg , 1012.9 hPa
Visibility: 10 miles , 16 km
2018/07/18 03:56 KMSV 180356Z AUTO 28005KT 10SM A2991 RMK AO2 SLPNO FZRANO $
KFWN - Sussex, New Jersey, USA
Distance from station: ESE 52mi, 84km
Updated: Tue, 17-Jul-2018 23:53 EDT
Partly cloudy
Partly cloudy
 Wind from calm
Wind: Calm
Temperature: 68°F , 20°C
Dew Point: 66°F , 19°C
Humidity: 94%
Barometer: 29.85 inHg , 1010.8 hPa
Clouds: Partly cloudy
Visibility: 9 miles , 14 km
Cloud details: Few Clouds 300 ft
Partly cloudy 8500 ft
2018/07/18 03:53 KFWN 180353Z AUTO 00000KT 9SM FEW003 SCT085 20/19 A2985 RMK AO2 SLP104 T02000194
 
K12N - Andover, New Jersey, USA
Distance from station: SE 54mi, 87km
Updated: Tue, 17-Jul-2018 23:54 EDT

 Wind from calm
Wind: Calm
Temperature: 66°F , 19°C
Dew Point: 66°F , 19°C
Humidity: 100%
Barometer: 29.86 inHg , 1011.2 hPa
2018/07/18 03:54 K12N 180354Z AUTO 00000KT 19/19 A2986 RMK AO1 SLP102 T01940194
KBGM - Binghamton, New York, USA
Distance from station: NNW 55mi, 88km
Updated: Tue, 17-Jul-2018 23:53 EDT
Clear
Clear
 Wind from NW
Wind: NW 5 mph , 7 km/h
Temperature: 64°F , 18°C
Dew Point: 50°F , 10°C
Humidity: 60%
Barometer: 29.92 inHg , 1013.2 hPa
Clouds: Clear
Visibility: 10 miles , 16 km
2018/07/18 03:53 KBGM 180353Z AUTO 32004KT 10SM CLR 18/10 A2992 RMK AO2 SLP124 T01780100
 
KABE - Allentown, Pennsylvania, USA
Distance from station: S 58mi, 94km
Updated: Tue, 17-Jul-2018 23:51 EDT
Mist, Clear
Mist, Clear
 Wind from WNW
Wind: WNW 5 mph , 7 km/h
Temperature: 70°F , 21°C
Dew Point: 66°F , 19°C
Humidity: 88%
Barometer: 29.86 inHg , 1011.2 hPa
Summary: Mist
Clouds: Clear
Visibility: 6 miles , 10 km
2018/07/18 03:51 KABE 180351Z 29004KT 6SM BR CLR 21/19 A2986 RMK AO2 SLP107 T02110194 $
KXLL - Allentown Queen, Pennsylvania, USA
Distance from station: S 64mi, 103km
Updated: Wed, 18-Jul-2018 00:35 EDT
Mist, Clear
Mist, Clear
 Wind from calm
Wind: Calm
Temperature: 68°F , 20°C
Dew Point: 68°F , 20°C
Humidity: 100%
Barometer: 29.87 inHg , 1011.5 hPa
Summary: Mist
Clouds: Clear
Visibility: 5 miles , 8 km
2018/07/18 04:35 KXLL 180435Z AUTO 00000KT 5SM BR CLR 20/20 A2987 RMK AO2
 
KMGJ - Montgomery, New York, USA
Distance from station: E 67mi, 108km
Updated: Tue, 17-Jul-2018 23:54 EDT
Overcast
Overcast
 Wind from SW
Wind: SW 3 mph , 6 km/h
Temperature: 68°F , 20°C
Dew Point: 66°F , 19°C
Humidity: 94%
Barometer: 29.84 inHg , 1010.5 hPa
Clouds: Overcast
Visibility: 10 miles , 16 km
Cloud details: Overcast 10000 ft
2018/07/18 03:54 KMGJ 180354Z AUTO 23003KT 10SM OVC100 20/19 A2984 RMK AO2 SLP102 T02000194 $
KIPT - Williamsport, Pennsylvania, USA
Distance from station: WSW 72mi, 116km
Updated: Tue, 17-Jul-2018 23:54 EDT
Few Clouds
Few Clouds
 Wind from NW
Wind: NW 5 mph , 7 km/h
Temperature: 66°F , 19°C
Dew Point: 64°F , 18°C
Humidity: 94%
Barometer: 29.90 inHg , 1012.5 hPa
Clouds: Few Clouds
Visibility: 10 miles , 16 km
Cloud details: Few Clouds 7000 ft
2018/07/18 03:54 KIPT 180354Z AUTO 31004KT 10SM FEW070 19/18 A2990 RMK AO2 SLP121 T01890178
 
KUKT - Quakertown Arp, Pennsylvania, USA
Distance from station: S 74mi, 119km
Updated: Wed, 18-Jul-2018 00:35 EDT
Clear
Clear
 Wind from calm
Wind: Calm
Temperature: 70°F , 21°C
Dew Point: 70°F , 21°C
Humidity: 100%
Barometer: 29.87 inHg , 1011.5 hPa
Clouds: Clear
Visibility: 10 miles , 16 km
2018/07/18 04:35 KUKT 180435Z AUTO 00000KT 10SM CLR 21/21 A2987 RMK A01
KSMQ - Somerville, New Jersey, USA
Distance from station: SE 76mi, 123km
Updated: Tue, 17-Jul-2018 15:42 EDT
NOT Current
Nearby thunderstorm, Light rain, Mist, Partly cloudy
Nearby thunderstorm, Light rain, Mist, Partly cloudy
 Wind from calm
Wind: Calm
Temperature: 72°F , 22°C
Dew Point: 72°F , 22°C
Humidity: 100%
Barometer: 29.81 inHg , 1009.5 hPa
Summary: Nearby thunderstorm, Light rain, Mist
Clouds: Partly cloudy
Visibility: 6 miles , 10 km
Cloud details: Partly cloudy 12000 ft
2018/07/17 19:42 KSMQ 171942Z AUTO 00000KT 6SM VCTS -RA BR SCT120 22/22 A2981 RMK AO2 LTG DSNT ALQDS TSE10B21E36 P0015 T02170217
 
KSWF - Newburgh/Stewart, New York, USA
Distance from station: E 77mi, 123km
Updated: Wed, 18-Jul-2018 00:45 EDT
Mostly cloudy
Mostly cloudy
 Wind from WSW
Wind: WSW 6 mph , 9 km/h
Temperature: 68°F , 20°C
Dew Point: 68°F , 20°C
Humidity: 100%
Barometer: 29.84 inHg , 1010.5 hPa
Clouds: Mostly cloudy
Visibility: 10 miles , 16 km
Cloud details: Few Clouds 400 ft
Partly cloudy 4000 ft
Mostly cloudy 9000 ft
2018/07/18 04:45 KSWF 180445Z 25005KT 10SM FEW004 SCT040 BKN090 20/20 A2984
KMMU - Morristown Muni, New Jersey, USA
Distance from station: SE 77mi, 124km
Updated: Wed, 18-Jul-2018 00:35 EDT
Mostly cloudy
Mostly cloudy
 Wind from calm
Wind: Calm
Temperature: 68°F , 20°C
Dew Point: 68°F , 20°C
Humidity: 100%
Barometer: 29.83 inHg , 1010.2 hPa
Clouds: Mostly cloudy
Visibility: 10 miles , 16 km
Cloud details: Partly cloudy 5000 ft
Mostly cloudy 9000 ft
2018/07/18 04:35 KMMU 180435Z AUTO 00000KT 10SM SCT050 BKN090 20/20 A2983 RMK AO2
 
KCDW - Caldwell, New Jersey, USA
Distance from station: ESE 79mi, 127km
Updated: Tue, 17-Jul-2018 23:53 EDT
Light rain, Mostly cloudy
Light rain, Mostly cloudy
 Wind from E
Wind: E 3 mph , 6 km/h
Temperature: 72°F , 22°C
Dew Point: 72°F , 22°C
Humidity: 100%
Barometer: 29.83 inHg , 1010.2 hPa
Summary: Light rain
Clouds: Mostly cloudy
Visibility: 10 miles , 16 km
Cloud details: Few Clouds 5000 ft
Partly cloudy 9000 ft
Mostly cloudy 12000 ft
2018/07/18 03:53 KCDW 180353Z 08003KT 10SM -RA FEW050 SCT090 BKN120 22/22 A2983 RMK AO2 RAB19 SLP104 P0000 T02170217 $
KRDG - Reading, Pennsylvania, USA
Distance from station: SSW 80mi, 130km
Updated: Tue, 17-Jul-2018 23:54 EDT
Clear
Clear
 Wind from NE
Wind: NE 3 mph , 6 km/h
Temperature: 72°F , 22°C
Dew Point: 72°F , 22°C
Humidity: 100%
Barometer: 29.84 inHg , 1010.5 hPa
Clouds: Clear
Visibility: 10 miles , 16 km
2018/07/18 03:54 KRDG 180354Z AUTO 05003KT 10SM CLR 22/22 A2984 RMK AO2 SLP106 T02170217
 
KITH - Ithaca/Tompkins, New York, USA
Distance from station: NW 81mi, 131km
Updated: Tue, 17-Jul-2018 23:56 EDT
Clear
Clear
 Wind from NW
Wind: NW 5 mph , 7 km/h
Temperature: 59°F , 15°C
Dew Point: 54°F , 12°C
Humidity: 82%
Barometer: 29.93 inHg , 1013.5 hPa
Clouds: Clear
Visibility: 10 miles , 16 km
2018/07/18 03:56 KITH 180356Z AUTO 32004KT 10SM CLR 15/12 A2993 RMK AO2 SLP130 T01500122 402720139
KSEG - Selinsgrove, Pennsylvania, USA
Distance from station: SW 82mi, 132km
Updated: Wed, 18-Jul-2018 00:04 EDT
Few Clouds
Few Clouds
 Wind from WNW
Wind: WNW 3 mph , 6 km/h
Temperature: 66°F , 19°C
Dew Point: 64°F , 18°C
Humidity: 94%
Barometer: 29.90 inHg , 1012.5 hPa
Clouds: Few Clouds
Visibility: 8 miles , 13 km
Cloud details: Few Clouds 100 ft
2018/07/18 04:04 KSEG 180404Z AUTO 30003KT 8SM FEW001 19/18 A2990 RMK AO2 T01890183
 
KELM - Elmira, New York, USA
Distance from station: WNW 82mi, 133km
Updated: Tue, 17-Jul-2018 23:53 EDT
Clear
Clear
 Wind from W
Wind: W 6 mph , 9 km/h
Temperature: 59°F , 15°C
Dew Point: 55°F , 13°C
Humidity: 88%
Barometer: 29.92 inHg , 1013.2 hPa
Clouds: Clear
Visibility: 10 miles , 16 km
2018/07/18 03:53 KELM 180353Z AUTO 28005KT 10SM CLR 15/13 A2992 RMK AO2 SLP128 T01500133
KDYL - Doylestown, Pennsylvania, USA
Distance from station: SSE 83mi, 134km
Updated: Tue, 17-Jul-2018 23:54 EDT
Clear
Clear
 Wind from calm
Wind: Calm
Temperature: 70°F , 21°C
Dew Point: 70°F , 21°C
Humidity: 100%
Barometer: 29.84 inHg , 1010.5 hPa
Clouds: Clear
Visibility: 10 miles , 16 km
2018/07/18 03:54 KDYL 180354Z AUTO 00000KT 10SM CLR 21/21 A2984 RMK AO2 SLP097 T02110206